Time;durP1;ratioP1;P1;durP2;ratioP2;P2;SDS_P1;SDS_P2;PMS_P1;PMS_P2;Temp;Humidity;BMP_temperature;BMP_pressure;BME280_temperature;BME280_humidity;BME280_pressure;Samples;Min_cycle;Max_cycle;Signal;HPM_P1;HPM_P2
2022/05/06 00:01:28;;;;;;;23.88;10.18;;;;;;;10.80;100.00;102599.22;5068210;28;20532;-72
2022/05/06 00:03:54;;;;;;;22.88;10.27;;;;;;;10.75;100.00;102590.22;5070814;28;20016;-71
2022/05/06 00:06:20;;;;;;;25.20;10.93;;;;;;;10.72;100.00;102595.38;5064176;28;20024;-71
2022/05/06 00:08:46;;;;;;;38.28;11.07;;;;;;;10.70;100.00;102599.69;5068304;28;20029;-72
2022/05/06 00:11:11;;;;;;;36.22;9.48;;;;;;;10.58;100.00;102605.28;5075042;28;20089;-70
2022/05/06 00:13:37;;;;;;;18.25;9.55;;;;;;;10.66;100.00;102595.06;5073060;28;20148;-70
2022/05/06 00:16:05;;;;;;;24.30;10.10;;;;;;;10.68;100.00;102597.81;5074574;28;20037;-70
2022/05/06 00:18:31;;;;;;;18.05;8.88;;;;;;;10.62;100.00;102594.06;5074753;28;20484;-71
2022/05/06 00:20:57;;;;;;;20.20;9.13;;;;;;;10.64;100.00;102591.50;5073554;28;20093;-71
2022/05/06 00:23:23;;;;;;;16.20;9.18;;;;;;;10.61;100.00;102592.25;5074565;28;20023;-71
2022/05/06 00:25:48;;;;;;;32.67;8.88;;;;;;;10.60;100.00;102586.94;5074216;28;20020;-71
2022/05/06 00:28:15;;;;;;;20.75;8.00;;;;;;;10.49;100.00;102590.81;5073981;28;20080;-71
2022/05/06 00:30:41;;;;;;;26.50;8.30;;;;;;;10.44;100.00;102588.88;5071795;28;20054;-71
2022/05/06 00:33:09;;;;;;;15.75;9.23;;;;;;;10.46;100.00;102592.47;5072131;28;20032;-71
2022/05/06 00:35:35;;;;;;;22.27;9.23;;;;;;;10.44;100.00;102596.78;5070468;28;20025;-70
2022/05/06 00:38:00;;;;;;;12.65;7.93;;;;;;;10.38;100.00;102595.59;5074459;28;20040;-70
2022/05/06 00:40:25;;;;;;;252.20;12.07;;;;;;;10.25;100.00;102580.94;5073736;28;20030;-71
2022/05/06 00:42:51;;;;;;;241.07;11.18;;;;;;;10.26;100.00;102588.88;5072995;28;20024;-71
2022/05/06 00:45:17;;;;;;;45.85;7.95;;;;;;;10.44;100.00;102591.50;5073901;28;20028;-70
2022/05/06 00:47:43;;;;;;;112.93;10.15;;;;;;;10.41;100.00;102593.97;5072973;28;20391;-71
2022/05/06 00:50:09;;;;;;;46.03;10.05;;;;;;;10.43;100.00;102592.34;5073326;28;20032;-70
2022/05/06 00:52:36;;;;;;;55.17;9.57;;;;;;;10.46;100.00;102592.47;5074111;28;20036;-70
2022/05/06 00:55:02;;;;;;;15.80;8.93;;;;;;;10.51;100.00;102587.41;5074272;28;20074;-70
2022/05/06 00:57:30;;;;;;;15.73;9.60;;;;;;;10.54;100.00;102591.91;5074105;28;20040;-71
2022/05/06 01:02:39;;;;;;;;;;;;;;;10.58;100.00;102591.22;5066939;28;20035;-70
2022/05/06 01:05:05;;;;;;;40.28;10.55;;;;;;;10.52;100.00;102586.56;5072141;28;19913;-70
2022/05/06 01:07:30;;;;;;;21.17;11.52;;;;;;;10.61;100.00;102586.09;5072577;28;20051;-71
2022/05/06 01:09:56;;;;;;;33.13;11.35;;;;;;;10.71;100.00;102590.03;5073998;28;20487;-71
2022/05/06 01:12:21;;;;;;;37.45;11.95;;;;;;;10.69;100.00;102582.06;5073398;28;20060;-71
2022/05/06 01:14:46;;;;;;;63.58;12.50;;;;;;;10.72;100.00;102584.84;5071521;28;20439;-71
2022/05/06 01:17:13;;;;;;;24.58;10.90;;;;;;;10.60;100.00;102581.66;5073418;28;20056;-70
2022/05/06 01:19:39;;;;;;;66.20;10.10;;;;;;;10.57;100.00;102585.06;5072330;28;20055;-71
2022/05/06 01:22:05;;;;;;;48.08;11.68;;;;;;;10.44;100.00;102583.63;5072082;28;20126;-72
2022/05/06 01:24:31;;;;;;;44.58;10.80;;;;;;;10.38;100.00;102588.59;5062000;28;20040;-71
2022/05/06 01:27:04;;;;;;;28.45;11.23;;;;;;;10.43;100.00;102594.03;5073600;28;20044;-71
2022/05/06 01:29:31;;;;;;;62.60;12.15;;;;;;;10.41;100.00;102588.72;5064432;28;20023;-72
2022/05/06 01:31:57;;;;;;;37.40;12.43;;;;;;;10.47;100.00;102593.34;5062947;28;20042;-70
2022/05/06 01:34:25;;;;;;;46.20;11.07;;;;;;;10.47;100.00;102588.09;5071043;28;20082;-71
2022/05/06 01:36:54;;;;;;;42.65;11.73;;;;;;;10.41;100.00;102588.72;5073513;28;20032;-71
2022/05/06 01:39:26;;;;;;;17.67;10.05;;;;;;;10.37;100.00;102586.78;5073482;28;20372;-70
2022/05/06 01:41:53;;;;;;;39.78;11.38;;;;;;;10.31;100.00;102597.00;5073093;28;20027;-70
2022/05/06 01:44:20;;;;;;;42.75;12.10;;;;;;;10.37;100.00;102602.56;5072525;28;20045;-72
2022/05/06 01:46:47;;;;;;;51.10;12.18;;;;;;;10.30;100.00;102596.09;5071551;28;20029;-71
2022/05/06 01:49:14;;;;;;;58.75;11.93;;;;;;;10.28;100.00;102597.78;5071218;28;20032;-71
2022/05/06 01:51:42;;;;;;;21.25;11.95;;;;;;;10.33;100.00;102595.34;5072965;28;20581;-72
2022/05/06 01:54:08;;;;;;;19.48;11.15;;;;;;;10.31;100.00;102591.75;5072562;28;20086;-71
2022/05/06 01:56:33;;;;;;;62.90;13.02;;;;;;;10.35;100.00;102591.09;5072365;28;20480;-70
2022/05/06 01:58:58;;;;;;;37.78;12.68;;;;;;;10.35;100.00;102596.34;5069247;28;20041;-70
2022/05/06 02:01:23;;;;;;;22.75;12.18;;;;;;;10.33;100.00;102597.97;5071834;28;20020;-71
2022/05/06 02:06:33;;;;;;;46.72;11.57;;;;;;;10.23;100.00;102596.66;5071182;28;20048;-70
2022/05/06 02:08:58;;;;;;;59.15;12.23;;;;;;;10.27;100.00;102590.69;5071531;28;20431;-70
2022/05/06 02:11:23;;;;;;;50.78;11.98;;;;;;;10.01;100.00;102585.94;5072653;28;20099;-71
2022/05/06 02:13:49;;;;;;;51.63;12.98;;;;;;;9.84;100.00;102598.31;5072738;28;20025;-71
2022/05/06 02:16:16;;;;;;;27.38;13.88;;;;;;;9.91;100.00;102592.50;5070210;28;20031;-71
2022/05/06 02:18:42;;;;;;;51.08;14.85;;;;;;;9.98;100.00;102598.97;5070978;28;20040;-71
2022/05/06 02:21:07;;;;;;;52.35;14.32;;;;;;;10.01;100.00;102592.13;5072469;28;20447;-71
2022/05/06 02:23:32;;;;;;;36.25;16.48;;;;;;;10.08;100.00;102591.56;5070782;28;20019;-70
2022/05/06 02:25:58;;;;;;;44.15;16.58;;;;;;;10.07;100.00;102595.03;5071664;28;20028;-68
2022/05/06 02:28:24;;;;;;;117.88;16.52;;;;;;;10.11;100.00;102593.44;5070811;28;20028;-70
2022/05/06 02:33:36;;;;;;;118.75;17.48;;;;;;;10.10;100.00;102600.41;5072467;28;20036;-71
2022/05/06 02:36:02;;;;;;;119.10;17.83;;;;;;;10.11;100.00;102598.72;5071815;28;20407;-71
2022/05/06 02:38:28;;;;;;;57.28;18.05;;;;;;;10.17;100.00;102598.09;5070941;28;20502;-71
2022/05/06 02:40:54;;;;;;;74.45;20.15;;;;;;;10.22;100.00;102586.06;5072681;28;20029;-71
2022/05/06 02:43:19;;;;;;;159.75;22.27;;;;;;;10.19;100.00;102592.06;5070871;28;20024;-70
2022/05/06 02:45:45;;;;;;;70.55;22.05;;;;;;;10.32;100.00;102596.16;5069720;28;20099;-71
2022/05/06 02:48:10;;;;;;;70.10;21.80;;;;;;;10.39;100.00;102608.81;5070818;28;20119;-70
2022/05/06 02:50:37;;;;;;;49.33;20.85;;;;;;;10.43;100.00;102605.50;5071662;28;20035;-71
2022/05/06 02:53:04;;;;;;;133.35;22.17;;;;;;;10.44;100.00;102604.69;5072118;28;20033;-71
2022/05/06 02:55:31;;;;;;;61.13;20.67;;;;;;;10.49;100.00;102606.63;5071696;28;20021;-71
2022/05/06 02:57:57;;;;;;;81.82;20.45;;;;;;;10.36;100.00;102606.03;5071187;28;20089;-71
2022/05/06 03:00:22;;;;;;;46.50;18.55;;;;;;;10.24;100.00;102600.16;5068746;28;20032;-70
2022/05/06 03:02:48;;;;;;;50.72;18.50;;;;;;;10.18;100.00;102600.78;5072278;28;20099;-70
2022/05/06 03:05:13;;;;;;;51.53;18.13;;;;;;;10.28;100.00;102592.50;5071899;28;20436;-70
2022/05/06 03:07:40;;;;;;;47.47;18.65;;;;;;;10.25;100.00;102591.44;5070193;28;20102;-70
2022/05/06 03:10:06;;;;;;;38.42;18.58;;;;;;;10.27;100.00;102589.81;5062228;28;20032;-71
2022/05/06 03:12:31;;;;;;;75.50;18.35;;;;;;;10.26;100.00;102585.38;5071821;28;20166;-71
2022/05/06 03:14:58;;;;;;;40.72;17.25;;;;;;;10.18;100.00;102589.38;5071255;28;20025;-70
2022/05/06 03:17:24;;;;;;;78.97;17.50;;;;;;;10.08;100.00;102588.94;5072609;28;20028;-71
2022/05/06 03:19:49;;;;;;;60.65;16.27;;;;;;;10.01;100.00;102589.50;5070798;28;20029;-71
2022/05/06 03:22:16;;;;;;;35.42;16.88;;;;;;;10.03;100.00;102585.19;5070079;28;20403;-70
2022/05/06 03:24:42;;;;;;;53.53;17.63;;;;;;;10.00;100.00;102595.56;5070792;28;20425;-71
2022/05/06 03:27:59;;;;;;;37.85;17.50;;;;;;;10.02;100.00;102599.16;5071603;28;20029;-70
2022/05/06 03:29:56;;;;;;;37.60;16.00;;;;;;;9.99;100.00;102601.66;5064239;28;20063;-71
2022/05/06 03:32:22;;;;;;;77.20;16.67;;;;;;;9.92;100.00;102592.56;5071967;28;20104;-70
2022/05/06 03:34:49;;;;;;;51.00;15.57;;;;;;;9.92;100.00;102595.19;5070889;28;20487;-71
2022/05/06 03:37:15;;;;;;;36.60;14.77;;;;;;;9.83;100.00;102591.25;5071545;28;20021;-70
2022/05/06 03:39:40;;;;;;;61.10;17.75;;;;;;;9.79;100.00;102584.94;5070450;28;20119;-70
2022/05/06 03:42:06;;;;;;;38.33;15.70;;;;;;;9.75;100.00;102589.16;5074803;28;20048;-71
2022/05/06 03:44:31;;;;;;;50.20;17.17;;;;;;;9.76;100.00;102588.31;5075312;28;20115;-70
2022/05/06 03:46:56;;;;;;;31.33;15.98;;;;;;;9.79;100.00;102583.22;5075378;28;20028;-71
2022/05/06 03:49:22;;;;;;;34.03;15.15;;;;;;;9.74;100.00;102584.72;5074515;28;20456;-70
2022/05/06 03:51:47;;;;;;;54.10;16.05;;;;;;;9.74;100.00;102584.72;5075291;28;20024;-70
2022/05/06 03:54:13;;;;;;;150.48;17.88;;;;;;;9.68;100.00;102581.78;5072127;28;20078;-71
2022/05/06 03:56:38;;;;;;;42.13;16.25;;;;;;;9.74;100.00;102574.19;5074957;28;20031;-71
2022/05/06 03:59:04;;;;;;;69.38;16.33;;;;;;;9.76;100.00;102590.03;5075610;28;20031;-71
2022/05/06 04:01:29;;;;;;;35.55;17.33;;;;;;;9.83;100.00;102581.63;5074321;28;20028;-71
2022/05/06 04:03:54;;;;;;;49.60;16.60;;;;;;;9.88;100.00;102598.53;5075484;28;20025;-71
2022/05/06 04:06:20;;;;;;;54.05;17.50;;;;;;;9.96;100.00;102585.75;5074677;28;20031;-70
2022/05/06 04:08:45;;;;;;;52.58;17.95;;;;;;;9.95;100.00;102589.19;5073405;28;20051;-73
2022/05/06 04:11:12;;;;;;;48.25;16.13;;;;;;;9.98;100.00;102588.44;5073806;28;20032;-71
2022/05/06 04:13:38;;;;;;;38.70;17.15;;;;;;;9.90;100.00;102586.34;5073533;28;20035;-71
2022/05/06 04:16:04;;;;;;;39.50;18.23;;;;;;;9.91;100.00;102588.13;5074292;28;20036;-70
2022/05/06 04:18:30;;;;;;;48.17;18.10;;;;;;;9.85;100.00;102584.31;5075119;28;20033;-69
2022/05/06 04:23:39;;;;;;;57.88;19.90;;;;;;;9.93;100.00;102590.88;5071147;28;20044;-71
2022/05/06 04:26:06;;;;;;;46.92;18.40;;;;;;;9.95;100.00;102597.09;5074340;28;20024;-70
2022/05/06 04:28:32;;;;;;;44.50;17.92;;;;;;;9.89;100.00;102599.41;5074611;28;20099;-70
2022/05/06 04:30:58;;;;;;;105.25;17.42;;;;;;;9.74;100.00;102602.19;5075290;28;20056;-70
2022/05/06 04:33:25;;;;;;;47.45;15.52;;;;;;;9.71;100.00;102612.56;5073002;28;20048;-71
2022/05/06 04:35:51;;;;;;;51.85;16.00;;;;;;;9.55;100.00;102610.91;5073878;28;20442;-71
2022/05/06 04:38:16;;;;;;;83.57;17.27;;;;;;;9.61;100.00;102617.38;5073662;28;20476;-70
2022/05/06 04:40:43;;;;;;;49.20;16.58;;;;;;;9.64;100.00;102606.13;5072587;28;20103;-70
2022/05/06 04:43:09;;;;;;;37.15;16.60;;;;;;;9.68;100.00;102618.59;5073625;28;20421;-71
2022/05/06 04:45:43;;;;;;;77.28;17.15;;;;;;;9.54;100.00;102614.41;5072959;28;20017;-69
2022/05/06 04:48:10;;;;;;;49.42;15.65;;;;;;;9.56;100.00;102616.28;5074301;28;20384;-71
2022/05/06 04:50:37;;;;;;;109.15;19.05;;;;;;;9.52;100.00;102621.28;5065989;28;20093;-71
2022/05/06 04:53:05;;;;;;;59.15;19.35;;;;;;;9.65;100.00;102626.31;5073816;28;20028;-70
2022/05/06 04:55:30;;;;;;;62.90;18.40;;;;;;;9.70;100.00;102631.78;5055653;28;20549;-71
2022/05/06 04:57:55;;;;;;;38.42;17.10;;;;;;;9.70;100.00;102622.19;5074002;28;20032;-72
2022/05/06 05:00:21;;;;;;;54.45;15.32;;;;;;;9.66;100.00;102620.25;5072738;28;20082;-71
2022/05/06 05:02:48;;;;;;;43.42;15.40;;;;;;;9.64;100.00;102616.63;5072573;28;20031;-71
2022/05/06 05:05:13;;;;;;;70.80;13.82;;;;;;;9.44;100.00;102621.81;5072692;28;20040;-71
2022/05/06 05:07:39;;;;;;;40.97;15.45;;;;;;;9.50;100.00;102622.97;5070539;28;20028;-70
2022/05/06 05:10:05;;;;;;;32.45;14.00;;;;;;;9.49;100.00;102622.03;5073495;28;20070;-71
2022/05/06 05:12:31;;;;;;;42.17;14.10;;;;;;;9.44;100.00;102619.19;5071494;28;20032;-70
2022/05/06 05:14:56;;;;;;;59.90;15.38;;;;;;;9.40;100.00;102629.44;5072444;28;20115;-70
2022/05/06 05:17:22;;;;;;;46.55;16.23;;;;;;;9.48;100.00;102624.59;5074436;28;20112;-70
2022/05/06 05:19:47;;;;;;;59.15;16.58;;;;;;;9.49;100.00;102626.41;5074001;28;20115;-70
2022/05/06 05:22:12;;;;;;;59.40;15.77;;;;;;;9.52;100.00;102623.91;5071509;28;20388;-71
2022/05/06 05:24:38;;;;;;;45.60;14.90;;;;;;;9.58;100.00;102624.22;5070919;28;20029;-71
2022/05/06 05:27:03;;;;;;;39.30;16.23;;;;;;;9.66;100.00;102638.66;5074436;28;20074;-69
2022/05/06 05:29:29;;;;;;;37.35;15.73;;;;;;;9.72;100.00;102638.03;5073426;28;20071;-69
2022/05/06 05:31:55;;;;;;;86.47;16.58;;;;;;;9.74;100.00;102632.03;5072939;28;20013;-70
2022/05/06 05:34:21;;;;;;;38.10;16.65;;;;;;;9.85;100.00;102636.91;5072679;28;20094;-71
2022/05/06 05:36:46;;;;;;;48.28;16.23;;;;;;;9.86;100.00;102630.81;5072525;28;20028;-69
2022/05/06 05:39:11;;;;;;;36.65;14.55;;;;;;;9.89;100.00;102638.84;5071849;28;20025;-71
2022/05/06 05:41:38;;;;;;;47.88;12.82;;;;;;;9.91;100.00;102637.22;5073101;28;20456;-71
2022/05/06 05:49:32;;;;;;;;;;;;;;;10.01;100.00;102636.84;5073534;28;20042;-69
2022/05/06 05:51:57;;;;;;;31.27;14.00;;;;;;;10.00;100.00;102632.41;5071317;28;19912;-71
2022/05/06 05:54:23;;;;;;;28.52;13.65;;;;;;;10.02;100.00;102635.09;5072000;28;20030;-71
2022/05/06 05:56:48;;;;;;;30.42;12.25;;;;;;;9.88;100.00;102627.44;5070988;28;20025;-70
2022/05/06 05:59:14;;;;;;;29.38;13.80;;;;;;;9.94;100.00;102634.72;5072296;28;20375;-70
2022/05/06 06:01:40;;;;;;;27.33;14.38;;;;;;;9.95;100.00;102637.41;5070160;28;20107;-72
2022/05/06 06:04:05;;;;;;;27.70;11.88;;;;;;;9.92;100.00;102634.66;5070402;28;20021;-72
2022/05/06 06:06:31;;;;;;;37.65;13.93;;;;;;;9.90;100.00;102630.13;5072184;28;20452;-70
2022/05/06 06:08:56;;;;;;;21.77;11.70;;;;;;;9.97;100.00;102640.16;5071080;28;20032;-71
2022/05/06 06:11:21;;;;;;;19.38;10.38;;;;;;;10.05;100.00;102636.16;5061186;28;20029;-72
2022/05/06 06:13:47;;;;;;;20.77;11.30;;;;;;;10.08;100.00;102632.78;5071540;28;20025;-71
2022/05/06 06:16:13;;;;;;;26.02;12.90;;;;;;;10.07;100.00;102631.84;5072664;28;20097;-69
2022/05/06 06:18:39;;;;;;;15.98;9.95;;;;;;;10.11;100.00;102636.44;5073262;28;20024;-72
2022/05/06 06:21:05;;;;;;;16.15;10.85;;;;;;;10.02;100.00;102642.97;5072854;28;20378;-72
2022/05/06 06:23:31;;;;;;;17.77;10.88;;;;;;;10.03;100.00;102637.78;5085697;28;20016;-71
2022/05/06 06:25:57;;;;;;;20.35;11.70;;;;;;;10.01;100.00;102647.34;5072925;28;20078;-71
2022/05/06 06:28:23;;;;;;;20.98;11.77;;;;;;;9.96;100.00;102654.13;5051605;28;20025;-71
2022/05/06 06:30:48;;;;;;;21.30;13.30;;;;;;;10.02;100.00;102651.75;5072932;28;20365;-71
2022/05/06 06:33:14;;;;;;;23.45;13.75;;;;;;;10.05;100.00;102651.94;5071896;28;20119;-71
2022/05/06 06:35:39;;;;;;;25.42;13.35;;;;;;;10.18;100.00;102652.50;5072435;28;20452;-72
2022/05/06 06:38:06;;;;;;;22.00;14.10;;;;;;;10.29;100.00;102659.16;5070970;28;20089;-71
2022/05/06 06:40:31;;;;;;;26.77;15.30;;;;;;;10.35;100.00;102661.22;5068266;28;20028;-70
2022/05/06 06:43:03;;;;;;;27.73;16.67;;;;;;;10.44;100.00;102664.28;5073275;28;20036;-72
2022/05/06 06:45:29;;;;;;;25.90;17.65;;;;;;;10.52;100.00;102654.13;5066177;28;20037;-73
2022/05/06 06:47:55;;;;;;;33.83;18.30;;;;;;;10.61;100.00;102654.53;5070057;28;20387;-71
2022/05/06 06:50:20;;;;;;;33.15;18.48;;;;;;;10.72;100.00;102661.19;5069245;28;20033;-70
2022/05/06 06:52:46;;;;;;;32.83;17.92;;;;;;;10.73;100.00;102647.19;5071178;28;20577;-72
2022/05/06 06:55:11;;;;;;;32.75;18.45;;;;;;;10.75;100.00;102656.06;5072134;28;20032;-71
2022/05/06 06:57:37;;;;;;;36.88;18.65;;;;;;;10.78;100.00;102656.22;5072557;28;20036;-71
2022/05/06 07:00:05;;;;;;;38.80;18.48;;;;;;;10.87;100.00;102660.09;5071748;28;20024;-72
2022/05/06 07:02:31;;;;;;;33.75;19.17;;;;;;;10.88;100.00;102659.22;5052859;28;20037;-72
2022/05/06 07:04:57;;;;;;;37.55;20.52;;;;;;;10.82;100.00;102659.88;5072529;28;20035;-72
2022/05/06 07:12:51;;;;;;;33.08;18.20;;;;;;;10.98;100.00;102661.44;5071062;28;20395;-72
2022/05/06 07:15:16;;;;;;;31.80;18.85;;;;;;;11.10;100.00;102661.09;5072192;28;20016;-73
2022/05/06 07:17:42;;;;;;;36.58;18.27;;;;;;;11.11;100.00;102657.66;5075890;28;20028;-72
2022/05/06 07:20:07;;;;;;;31.45;18.23;;;;;;;11.17;100.00;102652.63;5073911;28;20017;-72
2022/05/06 07:22:33;;;;;;;29.77;16.70;;;;;;;11.28;100.00;102658.34;5076512;28;20024;-72
2022/05/06 07:24:58;;;;;;;33.22;16.67;;;;;;;11.39;100.00;102664.09;5067133;28;20468;-73
2022/05/06 07:27:23;;;;;;;32.75;17.10;;;;;;;11.45;100.00;102654.69;5075574;28;20067;-70
2022/05/06 07:29:49;;;;;;;27.90;16.63;;;;;;;11.61;100.00;102658.88;5072312;28;20032;-72
2022/05/06 07:32:14;;;;;;;31.10;17.58;;;;;;;11.66;100.00;102652.91;5073289;28;20039;-72
2022/05/06 07:34:40;;;;;;;27.40;16.75;;;;;;;11.67;100.00;102655.59;5074553;28;20081;-72
2022/05/06 07:37:05;;;;;;;32.13;19.27;;;;;;;11.79;100.00;102645.53;5073881;28;20443;-72
2022/05/06 07:39:30;;;;;;;33.97;18.20;;;;;;;11.96;100.00;102648.00;5074177;28;20020;-72
2022/05/06 07:41:56;;;;;;;35.65;19.60;;;;;;;12.04;100.00;102650.94;5090205;28;20029;-69
2022/05/06 07:44:21;;;;;;;25.90;14.43;;;;;;;12.18;100.00;102647.13;5074618;28;20023;-72
2022/05/06 07:46:47;;;;;;;29.10;16.15;;;;;;;12.21;100.00;102641.94;5073209;28;20059;-70
2022/05/06 07:49:12;;;;;;;28.05;15.20;;;;;;;12.37;100.00;102646.09;5075205;28;20437;-73
2022/05/06 07:51:38;;;;;;;22.83;13.82;;;;;;;12.43;100.00;102637.50;5074494;28;20490;-71
2022/05/06 07:54:04;;;;;;;28.30;14.32;;;;;;;12.56;100.00;102636.19;5075139;28;20029;-71
2022/05/06 07:56:29;;;;;;;25.60;14.43;;;;;;;12.68;100.00;102636.66;5075892;28;20074;-70
2022/05/06 07:58:56;;;;;;;23.55;12.95;;;;;;;12.81;100.00;102627.44;5075271;28;20040;-70
2022/05/06 08:06:50;;;;;;;;;;;;;;;13.13;100.00;102636.50;5075887;28;20040;-71
2022/05/06 08:09:15;;;;;;;26.20;15.82;;;;;;;13.29;100.00;102629.09;5075289;28;19912;-72
2022/05/06 08:11:41;;;;;;;26.25;15.38;;;;;;;13.43;100.00;102630.50;5073017;28;20141;-72
2022/05/06 08:14:07;;;;;;;28.95;15.10;;;;;;;13.49;100.00;102621.88;5073514;28;20036;-72
2022/05/06 08:16:32;;;;;;;23.65;14.80;;;;;;;13.63;100.00;102622.31;5073797;28;20039;-72
2022/05/06 08:18:58;;;;;;;23.42;15.38;;;;;;;13.77;100.00;102615.75;5073650;28;20050;-72
2022/05/06 08:21:23;;;;;;;23.02;15.15;;;;;;;13.87;100.00;102619.56;5072956;28;20044;-71
2022/05/06 08:23:48;;;;;;;25.98;14.90;;;;;;;14.03;100.00;102620.06;5075150;28;20031;-72
2022/05/06 08:26:13;;;;;;;23.85;14.77;;;;;;;14.15;100.00;102621.31;5074203;28;20028;-73
2022/05/06 08:28:39;;;;;;;24.88;14.55;;;;;;;14.19;100.00;102614.38;5074067;28;20044;-72
2022/05/06 08:31:04;;;;;;;19.95;13.25;;;;;;;14.38;100.00;102621.13;5074097;28;20028;-72
2022/05/06 08:33:29;;;;;;;21.90;13.90;;;;;;;14.52;100.00;102623.28;5073365;28;20045;-71
2022/05/06 08:35:55;;;;;;;24.38;14.00;;;;;;;14.58;100.00;102628.72;5073857;28;20062;-70
2022/05/06 08:38:21;;;;;;;18.35;12.70;;;;;;;14.72;100.00;102615.91;5073218;28;20090;-71
2022/05/06 08:40:48;;;;;;;20.88;13.57;;;;;;;14.72;100.00;102623.84;5075431;28;20024;-71
2022/05/06 08:43:14;;;;;;;21.95;13.80;;;;;;;14.81;100.00;102626.75;5074349;28;20026;-71
2022/05/06 08:51:10;;;;;;;21.33;14.15;;;;;;;15.04;100.00;102619.44;5075779;28;20458;-73
2022/05/06 08:53:40;;;;;;;19.38;12.82;;;;;;;15.23;99.44;102610.22;5074885;28;20050;-72
2022/05/06 08:56:06;;;;;;;21.10;13.70;;;;;;;15.31;97.50;102618.38;5075039;28;20441;-72
2022/05/06 08:58:37;;;;;;;19.17;14.02;;;;;;;15.33;97.46;102611.38;5074024;28;20027;-72
2022/05/06 09:01:09;;;;;;;20.63;13.18;;;;;;;15.40;96.77;102604.47;5072969;28;20107;-72
2022/05/06 09:03:39;;;;;;;18.33;12.20;;;;;;;15.58;98.24;102607.53;5074852;28;20468;-72
2022/05/06 09:06:15;;;;;;;18.80;12.20;;;;;;;15.80;96.01;102605.44;5074604;28;20024;-72
2022/05/06 09:08:45;;;;;;;17.90;12.30;;;;;;;15.94;94.83;102603.09;5074798;28;20119;-72
2022/05/06 09:11:11;;;;;;;18.23;12.88;;;;;;;15.94;95.02;102608.38;5074503;28;20041;-71
2022/05/06 09:13:51;;;;;;;16.35;12.15;;;;;;;16.10;93.71;102605.25;5074071;28;20024;-71
2022/05/06 09:19:25;;;;;;;16.88;11.70;;;;;;;16.36;92.47;102599.59;5074643;28;20040;-72
2022/05/06 09:22:14;;;;;;;16.02;11.50;;;;;;;16.52;90.08;102607.00;5074347;28;20058;-72
2022/05/06 09:24:50;;;;;;;13.98;10.95;;;;;;;16.48;89.82;102613.13;5072603;28;20041;-72
2022/05/06 09:27:17;;;;;;;15.43;11.35;;;;;;;16.52;90.28;102606.09;5073405;28;20032;-71
2022/05/06 09:29:51;;;;;;;13.63;10.48;;;;;;;16.52;90.46;102609.66;5073116;28;20095;-73
2022/05/06 09:32:25;;;;;;;14.48;10.77;;;;;;;16.66;90.13;102611.72;5073389;28;20028;-72
2022/05/06 09:34:51;;;;;;;15.45;10.13;;;;;;;16.85;88.87;102613.84;5072953;28;20028;-72
2022/05/06 09:37:31;;;;;;;13.63;9.73;;;;;;;17.04;87.65;102600.94;5074176;28;20020;-71
2022/05/06 09:40:01;;;;;;;14.60;9.93;;;;;;;17.19;86.67;102608.28;5071539;28;20044;-72
2022/05/06 09:42:27;;;;;;;13.07;9.88;;;;;;;17.24;86.36;102605.69;5074046;28;20119;-71
2022/05/06 09:44:52;;;;;;;15.57;10.85;;;;;;;17.27;86.57;102601.31;5074118;28;20104;-72
2022/05/06 09:47:20;;;;;;;14.90;8.75;;;;;;;17.36;85.28;102595.25;5072693;28;20025;-72
2022/05/06 09:49:45;;;;;;;14.60;9.70;;;;;;;17.47;85.00;102596.34;5070186;28;20120;-71
2022/05/06 09:52:14;;;;;;;10.43;9.13;;;;;;;17.59;82.12;102584.09;5073133;28;20119;-73
2022/05/06 09:54:41;;;;;;;11.68;9.20;;;;;;;17.78;84.00;102590.56;5074686;28;20024;-74
2022/05/06 09:57:08;;;;;;;9.75;8.02;;;;;;;17.99;82.87;102588.25;5072780;28;20028;-74
2022/05/06 09:59:35;;;;;;;11.75;8.15;;;;;;;18.13;80.53;102588.44;5067171;28;20028;-73
2022/05/06 10:02:00;;;;;;;12.27;8.50;;;;;;;18.31;80.25;102587.78;5072456;28;20032;-73
2022/05/06 10:04:26;;;;;;;9.10;8.13;;;;;;;18.46;81.08;102581.75;5072636;28;20078;-73
2022/05/06 10:06:53;;;;;;;9.23;7.80;;;;;;;18.54;76.88;102585.41;5072986;28;20032;-73
2022/05/06 10:09:23;;;;;;;11.80;8.60;;;;;;;18.39;77.39;102574.53;5073117;28;20476;-73
2022/05/06 10:11:51;;;;;;;11.35;8.35;;;;;;;18.45;79.26;102574.63;5072231;28;20082;-73
2022/05/06 10:14:18;;;;;;;12.98;8.70;;;;;;;18.59;75.70;102579.22;5073371;28;20031;-74
2022/05/06 10:16:44;;;;;;;12.75;7.32;;;;;;;18.70;76.74;102588.22;5071899;28;20368;-74
2022/05/06 10:19:26;;;;;;;11.75;8.07;;;;;;;18.76;73.82;102582.06;5072900;28;20070;-73
2022/05/06 10:21:52;;;;;;;10.27;7.28;;;;;;;19.00;72.69;102578.78;5073155;28;20450;-74
2022/05/06 10:24:18;;;;;;;12.52;8.63;;;;;;;19.18;71.09;102576.28;5073255;28;20016;-73
2022/05/06 10:26:48;;;;;;;9.98;8.20;;;;;;;19.25;74.23;102576.31;5072473;28;20054;-73
2022/05/06 10:32:25;;;;;;;10.38;7.47;;;;;;;19.79;68.33;102569.59;5072775;28;20380;-74
2022/05/06 10:35:02;;;;;;;9.18;7.90;;;;;;;19.96;72.09;102574.16;5073255;28;20024;-73
2022/05/06 10:37:46;;;;;;;12.15;6.90;;;;;;;20.19;68.27;102571.59;5072584;28;20086;-74
2022/05/06 10:40:23;;;;;;;10.18;7.78;;;;;;;19.75;66.00;102570.47;5071500;28;20020;-72
2022/05/06 10:42:49;;;;;;;7.85;7.05;;;;;;;19.92;66.03;102561.69;5073086;28;20020;-73
2022/05/06 10:45:26;;;;;;;12.77;7.32;;;;;;;19.90;65.32;102572.34;5071970;28;20030;-73
2022/05/06 10:47:52;;;;;;;10.30;6.65;;;;;;;20.20;65.35;102560.03;5072601;28;20146;-73
2022/05/06 10:50:19;;;;;;;10.20;7.35;;;;;;;20.35;62.21;102567.22;5072534;28;20032;-73
2022/05/06 10:52:46;;;;;;;12.90;7.07;;;;;;;20.58;62.63;102563.69;5072529;28;20032;-73
2022/05/06 10:55:13;;;;;;;11.45;7.78;;;;;;;20.51;61.63;102563.69;5071902;28;20109;-72
2022/05/06 10:57:46;;;;;;;10.73;7.25;;;;;;;20.48;62.05;102558.34;5072563;28;20016;-73
2022/05/06 11:00:12;;;;;;;8.93;7.30;;;;;;;20.57;60.63;102561.91;5072684;28;20025;-71
2022/05/06 11:02:38;;;;;;;9.73;6.53;;;;;;;20.79;60.33;102562.88;5072398;28;20066;-71
2022/05/06 11:05:05;;;;;;;13.52;7.38;;;;;;;20.94;58.95;102562.88;5072715;28;20072;-72
2022/05/06 11:07:36;;;;;;;10.07;6.50;;;;;;;21.12;58.53;102554.00;5072314;28;20025;-71
2022/05/06 11:10:12;;;;;;;9.85;7.28;;;;;;;21.17;56.53;102551.28;5071535;28;20028;-71
2022/05/06 11:12:41;;;;;;;10.32;6.90;;;;;;;21.13;56.84;102553.06;5071367;28;20094;-71
2022/05/06 11:15:13;;;;;;;13.00;7.72;;;;;;;20.96;58.05;102555.75;5071630;28;20067;-71
2022/05/06 11:17:39;;;;;;;11.75;6.63;;;;;;;21.06;58.08;102552.19;5072519;28;20032;-71
2022/05/06 11:20:13;;;;;;;12.52;8.30;;;;;;;20.66;57.60;102546.78;5072650;28;20474;-72
2022/05/06 11:22:58;;;;;;;9.90;7.75;;;;;;;20.33;58.82;102544.91;5071583;28;20028;-72
2022/05/06 11:25:26;;;;;;;10.23;7.43;;;;;;;20.09;58.63;102543.94;5048249;28;20032;-71
2022/05/06 11:27:54;;;;;;;9.45;6.60;;;;;;;20.37;59.66;102544.03;5072414;28;20047;-73
2022/05/06 11:30:22;;;;;;;12.95;6.93;;;;;;;20.66;60.91;102537.84;5062607;28;20365;-72
2022/05/06 11:32:50;;;;;;;10.50;6.32;;;;;;;20.66;58.53;102530.72;5070313;28;20028;-72
2022/05/06 11:35:25;;;;;;;11.23;6.70;;;;;;;20.50;57.90;102529.78;5072252;28;20111;-71
2022/05/06 11:37:50;;;;;;;13.88;7.38;;;;;;;20.20;58.46;102534.16;5071745;28;20040;-72
2022/05/06 11:42:51;;;;;;;7.22;5.93;;;;;;;20.44;60.45;102539.59;5072379;28;20102;-73
2022/05/06 11:48:08;;;;;;;7.80;5.90;;;;;;;20.50;58.54;102529.78;5072286;28;20055;-72
2022/05/06 11:50:38;;;;;;;12.15;7.35;;;;;;;20.50;57.90;102529.78;5065683;28;20021;-72